Gilbert, AZ (85233)

8:51 PM MST on January 29, 2015 (GMT -0700)
Val vista & Chandler Blvd | Change Station
CLOSE
Current Station
Personal Weather Station
Location: Gilbert, AZ
Elevation: 1220 ft
Nearby Weather Stations

Elev 1220 ft 33.35 °N, 111.81 °W | Updated 1 minute ago

Mostly Cloudy
Mostly Cloudy
58.1 °F
Feels Like 58.1 °F
N
0.0
Wind Variable Wind from WSW
Gusts 0.0 mph

Today
High -- | Low -- °F
--% Chance of Precip.
Yesterday
High -- | Low -- °F
Precip. -- in
7:25 AM 5:55 PM
Waxing Gibbous, 79% visible
Pressure 30.05 in
Visibility 7.0 miles
Clouds Few 3000 ft
Mostly Cloudy 5000 ft
Overcast 8000 ft
Dew Point 55 °F
Humidity 90%
Rainfall 0.09 in
Snow Depth Not available.
UV 0 out of 12
Pollen 5.30 out of 12
Air Quality Not available.
Flu Activity Not available.
METAR KCHD 300347Z 00000KT 7SM FEW030 BKN050 OVC080 15/15 A3005

More Conditions Fewer Conditions

Pressure 30.05 in
Visibility 7.0 miles
Clouds Few 3000 ft
Mostly Cloudy 5000 ft
Overcast 8000 ft
Dew Point 55 °F
Humidity 90%
Rainfall 0.09 in
Snow Depth Not available.
UV 0 out of 12
Pollen 5.30 out of 12
Air Quality Not available.
Flu Activity Not available.
METAR KCHD 300347Z 00000KT 7SM FEW030 BKN050 OVC080 15/15 A3005

More Conditions Fewer Conditions

10-Day Weather Forecast

Almanac

Astronomy

Jan. 29, 2015 Rise Set
Actual Time
Civil Twilight
Nautical Twilight
Astronomical Twilight
Moon
Length of Visible Light
Length of Day
Tomorrow will be .
, % of the Moon is Illuminated

Today's Extremes

State Highs State Lows

Community

WunderPhotos

Upload Photos

1,791,702 photos uploaded!

WunderBlogs® & News

Nearby

Air Quality

  Air Quality AQ Index Pollutant
Not available.

Snow Depth

Station Depth Elevation

Earthquake Activity

City Distance Mag. Time & Date
Minimum magnitude displayed is 2.5.

Coastal Water Temperatures

Place Temperature

Nearby Weather Stations